sensor_id;sensor_type;location;lat;lon;timestamp;temperature;humidity
12885;DHT22;6510;51.362;7.370;2023-04-25T00:01:11;4.80;99.90
12885;DHT22;6510;51.362;7.370;2023-04-25T00:03:39;4.70;99.90
12885;DHT22;6510;51.362;7.370;2023-04-25T00:06:05;4.70;99.90
12885;DHT22;6510;51.362;7.370;2023-04-25T00:08:32;4.80;99.90
12885;DHT22;6510;51.362;7.370;2023-04-25T00:10:58;4.80;99.90
12885;DHT22;6510;51.362;7.370;2023-04-25T00:13:24;4.90;99.90
12885;DHT22;6510;51.362;7.370;2023-04-25T00:15:51;5.00;99.90
12885;DHT22;6510;51.362;7.370;2023-04-25T00:18:17;5.10;99.90
12885;DHT22;6510;51.362;7.370;2023-04-25T00:20:43;5.10;99.90
12885;DHT22;6510;51.362;7.370;2023-04-25T00:23:18;5.20;99.90
12885;DHT22;6510;51.362;7.370;2023-04-25T00:25:44;5.20;99.90
12885;DHT22;6510;51.362;7.370;2023-04-25T00:28:11;5.20;99.90
12885;DHT22;6510;51.362;7.370;2023-04-25T00:30:37;5.30;99.90
12885;DHT22;6510;51.362;7.370;2023-04-25T00:33:03;5.30;99.90
12885;DHT22;6510;51.362;7.370;2023-04-25T00:35:28;5.30;99.90
12885;DHT22;6510;51.362;7.370;2023-04-25T00:37:54;5.30;99.90
12885;DHT22;6510;51.362;7.370;2023-04-25T00:40:20;5.30;99.90
12885;DHT22;6510;51.362;7.370;2023-04-25T00:42:46;5.40;99.90
12885;DHT22;6510;51.362;7.370;2023-04-25T00:45:13;5.40;99.90
12885;DHT22;6510;51.362;7.370;2023-04-25T00:47:41;5.40;99.90
12885;DHT22;6510;51.362;7.370;2023-04-25T00:50:07;5.40;99.90
12885;DHT22;6510;51.362;7.370;2023-04-25T00:52:33;5.40;99.90
12885;DHT22;6510;51.362;7.370;2023-04-25T00:54:59;5.40;99.90
12885;DHT22;6510;51.362;7.370;2023-04-25T00:57:25;5.40;99.90
12885;DHT22;6510;51.362;7.370;2023-04-25T00:59:51;5.40;99.90
12885;DHT22;6510;51.362;7.370;2023-04-25T01:02:18;5.30;99.90
12885;DHT22;6510;51.362;7.370;2023-04-25T01:04:44;5.40;99.90
12885;DHT22;6510;51.362;7.370;2023-04-25T01:07:10;5.40;99.90
12885;DHT22;6510;51.362;7.370;2023-04-25T01:09:36;5.40;99.90
12885;DHT22;6510;51.362;7.370;2023-04-25T01:12:02;5.40;99.90
12885;DHT22;6510;51.362;7.370;2023-04-25T01:14:28;5.30;99.90
12885;DHT22;6510;51.362;7.370;2023-04-25T01:16:55;5.40;99.90
12885;DHT22;6510;51.362;7.370;2023-04-25T01:19:21;5.40;99.90
12885;DHT22;6510;51.362;7.370;2023-04-25T01:21:46;5.40;99.90
12885;DHT22;6510;51.362;7.370;2023-04-25T01:24:12;5.40;99.90
12885;DHT22;6510;51.362;7.370;2023-04-25T01:26:38;5.40;99.90
12885;DHT22;6510;51.362;7.370;2023-04-25T01:29:07;5.40;99.90
12885;DHT22;6510;51.362;7.370;2023-04-25T01:31:34;5.40;99.90
12885;DHT22;6510;51.362;7.370;2023-04-25T01:34:00;5.40;99.90
12885;DHT22;6510;51.362;7.370;2023-04-25T01:36:26;5.40;99.90
12885;DHT22;6510;51.362;7.370;2023-04-25T01:38:52;5.40;99.90
12885;DHT22;6510;51.362;7.370;2023-04-25T01:41:19;5.40;99.90
12885;DHT22;6510;51.362;7.370;2023-04-25T01:43:45;5.40;99.90
12885;DHT22;6510;51.362;7.370;2023-04-25T01:46:11;5.40;99.90
12885;DHT22;6510;51.362;7.370;2023-04-25T01:48:37;5.40;99.90
12885;DHT22;6510;51.362;7.370;2023-04-25T01:51:02;5.40;99.90
12885;DHT22;6510;51.362;7.370;2023-04-25T01:53:28;5.40;99.90
12885;DHT22;6510;51.362;7.370;2023-04-25T01:55:54;5.30;99.90
12885;DHT22;6510;51.362;7.370;2023-04-25T01:58:20;5.30;99.90
12885;DHT22;6510;51.362;7.370;2023-04-25T02:00:46;5.30;99.90
12885;DHT22;6510;51.362;7.370;2023-04-25T02:03:12;5.20;99.90
12885;DHT22;6510;51.362;7.370;2023-04-25T02:05:38;5.20;99.90
12885;DHT22;6510;51.362;7.370;2023-04-25T02:08:08;5.20;99.90
12885;DHT22;6510;51.362;7.370;2023-04-25T02:10:35;5.20;99.90
12885;DHT22;6510;51.362;7.370;2023-04-25T02:13:00;5.20;99.90
12885;DHT22;6510;51.362;7.370;2023-04-25T02:15:26;5.20;99.90
12885;DHT22;6510;51.362;7.370;2023-04-25T02:17:54;5.20;99.90
12885;DHT22;6510;51.362;7.370;2023-04-25T02:20:24;5.20;99.90
12885;DHT22;6510;51.362;7.370;2023-04-25T02:22:50;5.20;99.90
12885;DHT22;6510;51.362;7.370;2023-04-25T02:25:16;5.20;99.90
12885;DHT22;6510;51.362;7.370;2023-04-25T02:27:42;5.20;99.90
12885;DHT22;6510;51.362;7.370;2023-04-25T02:30:08;5.20;99.90
12885;DHT22;6510;51.362;7.370;2023-04-25T02:32:34;5.20;99.90
12885;DHT22;6510;51.362;7.370;2023-04-25T02:35:01;5.20;99.90
12885;DHT22;6510;51.362;7.370;2023-04-25T02:37:30;5.20;99.90
12885;DHT22;6510;51.362;7.370;2023-04-25T02:39:56;5.20;99.90
12885;DHT22;6510;51.362;7.370;2023-04-25T02:42:22;5.20;99.90
12885;DHT22;6510;51.362;7.370;2023-04-25T02:44:47;5.20;99.90
12885;DHT22;6510;51.362;7.370;2023-04-25T02:47:13;5.10;99.90
12885;DHT22;6510;51.362;7.370;2023-04-25T02:49:38;5.10;99.90
12885;DHT22;6510;51.362;7.370;2023-04-25T02:52:04;5.10;99.90
12885;DHT22;6510;51.362;7.370;2023-04-25T02:54:30;5.10;99.90
12885;DHT22;6510;51.362;7.370;2023-04-25T02:56:56;5.10;99.90
12885;DHT22;6510;51.362;7.370;2023-04-25T02:59:21;5.10;99.90
12885;DHT22;6510;51.362;7.370;2023-04-25T03:01:47;5.10;99.90
12885;DHT22;6510;51.362;7.370;2023-04-25T03:04:12;5.20;99.90
12885;DHT22;6510;51.362;7.370;2023-04-25T03:06:38;5.20;99.90
12885;DHT22;6510;51.362;7.370;2023-04-25T03:09:04;5.20;99.90
12885;DHT22;6510;51.362;7.370;2023-04-25T03:11:29;5.20;99.90
12885;DHT22;6510;51.362;7.370;2023-04-25T03:13:55;5.20;99.90
12885;DHT22;6510;51.362;7.370;2023-04-25T03:16:22;5.20;99.90
12885;DHT22;6510;51.362;7.370;2023-04-25T03:18:47;5.10;99.90
12885;DHT22;6510;51.362;7.370;2023-04-25T03:21:14;5.10;99.90
12885;DHT22;6510;51.362;7.370;2023-04-25T03:23:40;5.10;99.90
12885;DHT22;6510;51.362;7.370;2023-04-25T03:26:06;5.10;99.90
12885;DHT22;6510;51.362;7.370;2023-04-25T03:28:31;5.10;99.90
12885;DHT22;6510;51.362;7.370;2023-04-25T03:30:57;5.00;99.90
12885;DHT22;6510;51.362;7.370;2023-04-25T03:33:23;5.00;99.90
12885;DHT22;6510;51.362;7.370;2023-04-25T03:35:48;5.00;99.90
12885;DHT22;6510;51.362;7.370;2023-04-25T03:38:15;5.00;99.90
12885;DHT22;6510;51.362;7.370;2023-04-25T03:40:41;5.00;99.90
12885;DHT22;6510;51.362;7.370;2023-04-25T03:43:06;5.00;99.90
12885;DHT22;6510;51.362;7.370;2023-04-25T03:45:32;5.00;99.90
12885;DHT22;6510;51.362;7.370;2023-04-25T03:47:58;4.90;99.90
12885;DHT22;6510;51.362;7.370;2023-04-25T03:50:23;4.90;99.90
12885;DHT22;6510;51.362;7.370;2023-04-25T03:52:49;5.00;99.90
12885;DHT22;6510;51.362;7.370;2023-04-25T03:55:15;5.00;99.90
12885;DHT22;6510;51.362;7.370;2023-04-25T03:57:40;4.90;99.90
12885;DHT22;6510;51.362;7.370;2023-04-25T04:00:07;5.00;99.90
12885;DHT22;6510;51.362;7.370;2023-04-25T04:02:33;5.00;99.90
12885;DHT22;6510;51.362;7.370;2023-04-25T04:05:00;4.90;99.90
12885;DHT22;6510;51.362;7.370;2023-04-25T04:07:26;4.90;99.90
12885;DHT22;6510;51.362;7.370;2023-04-25T04:09:51;4.90;99.90
12885;DHT22;6510;51.362;7.370;2023-04-25T04:12:17;4.90;99.90
12885;DHT22;6510;51.362;7.370;2023-04-25T04:14:43;4.90;99.90
12885;DHT22;6510;51.362;7.370;2023-04-25T04:17:08;4.90;99.90
12885;DHT22;6510;51.362;7.370;2023-04-25T04:19:34;4.90;99.90
12885;DHT22;6510;51.362;7.370;2023-04-25T04:21:59;4.90;99.90
12885;DHT22;6510;51.362;7.370;2023-04-25T04:24:25;4.90;99.90
12885;DHT22;6510;51.362;7.370;2023-04-25T04:26:51;4.90;99.90
12885;DHT22;6510;51.362;7.370;2023-04-25T04:29:17;4.90;99.90
12885;DHT22;6510;51.362;7.370;2023-04-25T04:31:49;4.90;99.90
12885;DHT22;6510;51.362;7.370;2023-04-25T04:34:18;4.90;99.90
12885;DHT22;6510;51.362;7.370;2023-04-25T04:36:45;4.90;99.90
12885;DHT22;6510;51.362;7.370;2023-04-25T04:39:14;5.00;99.90
12885;DHT22;6510;51.362;7.370;2023-04-25T04:41:39;5.00;99.90
12885;DHT22;6510;51.362;7.370;2023-04-25T04:44:06;5.00;99.90
12885;DHT22;6510;51.362;7.370;2023-04-25T04:46:34;5.10;99.90
12885;DHT22;6510;51.362;7.370;2023-04-25T04:49:08;5.00;99.90
12885;DHT22;6510;51.362;7.370;2023-04-25T04:51:34;4.90;99.90
12885;DHT22;6510;51.362;7.370;2023-04-25T04:54:00;4.80;99.90
12885;DHT22;6510;51.362;7.370;2023-04-25T04:56:28;4.70;99.90
12885;DHT22;6510;51.362;7.370;2023-04-25T04:58:56;4.70;99.90
12885;DHT22;6510;51.362;7.370;2023-04-25T05:01:23;4.60;99.90
12885;DHT22;6510;51.362;7.370;2023-04-25T05:03:48;4.60;99.90
12885;DHT22;6510;51.362;7.370;2023-04-25T05:06:16;4.50;99.90
12885;DHT22;6510;51.362;7.370;2023-04-25T05:08:44;4.50;99.90
12885;DHT22;6510;51.362;7.370;2023-04-25T05:11:10;4.50;99.90
12885;DHT22;6510;51.362;7.370;2023-04-25T05:13:35;4.40;99.90
12885;DHT22;6510;51.362;7.370;2023-04-25T05:16:01;4.50;99.90
12885;DHT22;6510;51.362;7.370;2023-04-25T05:18:26;4.50;99.90
12885;DHT22;6510;51.362;7.370;2023-04-25T05:20:52;4.50;99.90
12885;DHT22;6510;51.362;7.370;2023-04-25T05:23:18;4.40;99.90
12885;DHT22;6510;51.362;7.370;2023-04-25T05:25:44;4.40;99.90
12885;DHT22;6510;51.362;7.370;2023-04-25T05:28:11;4.40;99.90
12885;DHT22;6510;51.362;7.370;2023-04-25T05:30:37;4.30;99.90
12885;DHT22;6510;51.362;7.370;2023-04-25T05:33:03;4.20;99.90
12885;DHT22;6510;51.362;7.370;2023-04-25T05:35:29;4.20;99.90
12885;DHT22;6510;51.362;7.370;2023-04-25T05:37:54;4.30;99.90
12885;DHT22;6510;51.362;7.370;2023-04-25T05:40:20;4.30;99.90
12885;DHT22;6510;51.362;7.370;2023-04-25T05:42:46;4.40;99.90
12885;DHT22;6510;51.362;7.370;2023-04-25T05:45:11;4.40;99.90
12885;DHT22;6510;51.362;7.370;2023-04-25T05:47:37;4.50;99.90
12885;DHT22;6510;51.362;7.370;2023-04-25T05:50:03;4.60;99.90
12885;DHT22;6510;51.362;7.370;2023-04-25T05:52:28;4.70;99.90
12885;DHT22;6510;51.362;7.370;2023-04-25T05:54:54;4.80;99.90
12885;DHT22;6510;51.362;7.370;2023-04-25T05:57:24;5.00;99.90
12885;DHT22;6510;51.362;7.370;2023-04-25T05:59:50;5.10;99.90
12885;DHT22;6510;51.362;7.370;2023-04-25T06:02:15;5.30;99.90
12885;DHT22;6510;51.362;7.370;2023-04-25T06:04:41;5.20;99.90
12885;DHT22;6510;51.362;7.370;2023-04-25T06:07:07;5.30;99.90
12885;DHT22;6510;51.362;7.370;2023-04-25T06:09:32;5.40;99.90
12885;DHT22;6510;51.362;7.370;2023-04-25T06:11:58;5.40;99.90
12885;DHT22;6510;51.362;7.370;2023-04-25T06:14:23;5.50;99.90
12885;DHT22;6510;51.362;7.370;2023-04-25T06:16:49;5.70;99.90
12885;DHT22;6510;51.362;7.370;2023-04-25T06:19:15;5.70;99.90
12885;DHT22;6510;51.362;7.370;2023-04-25T06:21:42;5.80;99.90
12885;DHT22;6510;51.362;7.370;2023-04-25T06:24:08;6.10;99.90
12885;DHT22;6510;51.362;7.370;2023-04-25T06:26:34;6.20;99.90
12885;DHT22;6510;51.362;7.370;2023-04-25T06:28:59;6.10;99.90
12885;DHT22;6510;51.362;7.370;2023-04-25T06:31:25;6.60;99.90
12885;DHT22;6510;51.362;7.370;2023-04-25T06:33:51;6.60;99.90
12885;DHT22;6510;51.362;7.370;2023-04-25T06:36:20;7.70;99.90
12885;DHT22;6510;51.362;7.370;2023-04-25T06:38:50;8.50;99.90
12885;DHT22;6510;51.362;7.370;2023-04-25T06:41:17;8.80;99.90
12885;DHT22;6510;51.362;7.370;2023-04-25T06:43:42;8.20;99.90
12885;DHT22;6510;51.362;7.370;2023-04-25T06:46:08;8.90;99.90
12885;DHT22;6510;51.362;7.370;2023-04-25T06:48:33;9.90;99.90
12885;DHT22;6510;51.362;7.370;2023-04-25T06:50:59;8.30;99.90
12885;DHT22;6510;51.362;7.370;2023-04-25T06:53:25;7.50;99.90
12885;DHT22;6510;51.362;7.370;2023-04-25T06:55:50;7.60;99.90
12885;DHT22;6510;51.362;7.370;2023-04-25T06:58:16;7.50;99.90
12885;DHT22;6510;51.362;7.370;2023-04-25T07:00:44;7.20;99.90
12885;DHT22;6510;51.362;7.370;2023-04-25T07:03:10;7.10;99.90
12885;DHT22;6510;51.362;7.370;2023-04-25T07:05:36;7.90;99.90
12885;DHT22;6510;51.362;7.370;2023-04-25T07:08:01;7.70;99.90
12885;DHT22;6510;51.362;7.370;2023-04-25T07:10:28;8.60;99.90
12885;DHT22;6510;51.362;7.370;2023-04-25T07:12:54;8.10;99.90
12885;DHT22;6510;51.362;7.370;2023-04-25T07:15:19;7.60;99.90
12885;DHT22;6510;51.362;7.370;2023-04-25T07:17:48;7.70;99.90
12885;DHT22;6510;51.362;7.370;2023-04-25T07:20:17;7.40;99.90
12885;DHT22;6510;51.362;7.370;2023-04-25T07:22:42;7.50;99.90
12885;DHT22;6510;51.362;7.370;2023-04-25T07:25:08;7.50;99.90
12885;DHT22;6510;51.362;7.370;2023-04-25T07:27:34;7.80;99.90
12885;DHT22;6510;51.362;7.370;2023-04-25T07:30:00;7.80;99.90
12885;DHT22;6510;51.362;7.370;2023-04-25T07:32:26;7.70;99.90
12885;DHT22;6510;51.362;7.370;2023-04-25T07:34:52;7.30;99.90
12885;DHT22;6510;51.362;7.370;2023-04-25T07:37:17;7.10;99.90
12885;DHT22;6510;51.362;7.370;2023-04-25T07:39:44;6.90;99.90
12885;DHT22;6510;51.362;7.370;2023-04-25T07:42:12;7.00;99.90
12885;DHT22;6510;51.362;7.370;2023-04-25T07:44:37;7.00;99.90
12885;DHT22;6510;51.362;7.370;2023-04-25T07:47:08;6.80;99.90
12885;DHT22;6510;51.362;7.370;2023-04-25T07:49:34;6.70;99.90
12885;DHT22;6510;51.362;7.370;2023-04-25T07:52:01;6.40;99.90
12885;DHT22;6510;51.362;7.370;2023-04-25T07:54:26;6.30;99.90
12885;DHT22;6510;51.362;7.370;2023-04-25T07:56:52;6.40;99.90
12885;DHT22;6510;51.362;7.370;2023-04-25T07:59:18;6.40;99.90
12885;DHT22;6510;51.362;7.370;2023-04-25T08:01:43;6.70;99.90
12885;DHT22;6510;51.362;7.370;2023-04-25T08:04:09;7.10;99.90
12885;DHT22;6510;51.362;7.370;2023-04-25T08:06:35;7.30;99.90
12885;DHT22;6510;51.362;7.370;2023-04-25T08:09:01;7.70;99.90
12885;DHT22;6510;51.362;7.370;2023-04-25T08:11:27;8.10;99.90
12885;DHT22;6510;51.362;7.370;2023-04-25T08:13:52;8.40;99.90
12885;DHT22;6510;51.362;7.370;2023-04-25T08:16:18;8.50;99.90
12885;DHT22;6510;51.362;7.370;2023-04-25T08:18:43;8.80;99.90
12885;DHT22;6510;51.362;7.370;2023-04-25T08:21:09;8.80;99.90
12885;DHT22;6510;51.362;7.370;2023-04-25T08:23:37;8.60;99.90
12885;DHT22;6510;51.362;7.370;2023-04-25T08:26:03;8.40;99.90
12885;DHT22;6510;51.362;7.370;2023-04-25T08:28:30;8.90;99.90
12885;DHT22;6510;51.362;7.370;2023-04-25T08:30:59;8.80;99.90
12885;DHT22;6510;51.362;7.370;2023-04-25T08:33:25;10.70;99.90
12885;DHT22;6510;51.362;7.370;2023-04-25T08:35:51;11.40;99.90
12885;DHT22;6510;51.362;7.370;2023-04-25T08:38:17;10.10;99.90
12885;DHT22;6510;51.362;7.370;2023-04-25T08:40:43;10.00;99.90
12885;DHT22;6510;51.362;7.370;2023-04-25T08:43:09;11.00;99.90
12885;DHT22;6510;51.362;7.370;2023-04-25T08:45:42;11.40;99.90
12885;DHT22;6510;51.362;7.370;2023-04-25T08:48:11;10.80;99.90
12885;DHT22;6510;51.362;7.370;2023-04-25T08:50:40;10.50;99.90
12885;DHT22;6510;51.362;7.370;2023-04-25T08:53:09;10.00;99.90
12885;DHT22;6510;51.362;7.370;2023-04-25T08:55:41;9.40;99.90
12885;DHT22;6510;51.362;7.370;2023-04-25T08:58:07;8.90;99.90
12885;DHT22;6510;51.362;7.370;2023-04-25T09:00:35;8.90;99.90
12885;DHT22;6510;51.362;7.370;2023-04-25T09:03:01;9.00;99.90
12885;DHT22;6510;51.362;7.370;2023-04-25T09:05:28;11.40;99.90
12885;DHT22;6510;51.362;7.370;2023-04-25T09:07:54;12.10;99.90
12885;DHT22;6510;51.362;7.370;2023-04-25T09:10:22;11.40;99.90
12885;DHT22;6510;51.362;7.370;2023-04-25T09:13:08;10.60;99.90
12885;DHT22;6510;51.362;7.370;2023-04-25T09:18:27;9.50;99.90
12885;DHT22;6510;51.362;7.370;2023-04-25T09:20:58;9.40;99.90
12885;DHT22;6510;51.362;7.370;2023-04-25T09:23:29;9.50;99.90
12885;DHT22;6510;51.362;7.370;2023-04-25T09:25:55;9.20;99.90
12885;DHT22;6510;51.362;7.370;2023-04-25T09:28:25;9.60;99.90
12885;DHT22;6510;51.362;7.370;2023-04-25T09:30:55;9.70;99.90
12885;DHT22;6510;51.362;7.370;2023-04-25T09:33:30;10.70;99.90
12885;DHT22;6510;51.362;7.370;2023-04-25T09:36:14;10.00;99.90
12885;DHT22;6510;51.362;7.370;2023-04-25T09:38:45;13.10;99.90
12885;DHT22;6510;51.362;7.370;2023-04-25T09:41:12;13.90;99.90
12885;DHT22;6510;51.362;7.370;2023-04-25T09:43:38;12.20;99.90
12885;DHT22;6510;51.362;7.370;2023-04-25T09:46:10;11.60;99.90
12885;DHT22;6510;51.362;7.370;2023-04-25T09:48:39;11.10;99.90
12885;DHT22;6510;51.362;7.370;2023-04-25T09:51:09;12.40;99.90
12885;DHT22;6510;51.362;7.370;2023-04-25T09:53:43;12.90;99.90
12885;DHT22;6510;51.362;7.370;2023-04-25T09:56:11;13.00;99.90
12885;DHT22;6510;51.362;7.370;2023-04-25T09:58:39;13.00;99.90
12885;DHT22;6510;51.362;7.370;2023-04-25T10:01:06;12.00;99.90
12885;DHT22;6510;51.362;7.370;2023-04-25T10:03:34;11.60;99.90
12885;DHT22;6510;51.362;7.370;2023-04-25T10:06:07;11.00;99.90
12885;DHT22;6510;51.362;7.370;2023-04-25T10:08:36;10.80;99.90
12885;DHT22;6510;51.362;7.370;2023-04-25T10:11:06;10.80;99.90
12885;DHT22;6510;51.362;7.370;2023-04-25T10:13:34;11.00;99.90
12885;DHT22;6510;51.362;7.370;2023-04-25T10:16:02;12.20;99.90
12885;DHT22;6510;51.362;7.370;2023-04-25T10:18:29;12.50;99.90
12885;DHT22;6510;51.362;7.370;2023-04-25T10:20:57;11.60;99.90
12885;DHT22;6510;51.362;7.370;2023-04-25T10:23:23;11.00;99.90
12885;DHT22;6510;51.362;7.370;2023-04-25T10:25:51;10.60;99.90
12885;DHT22;6510;51.362;7.370;2023-04-25T10:28:18;10.50;99.90
12885;DHT22;6510;51.362;7.370;2023-04-25T10:31:00;10.50;99.90
12885;DHT22;6510;51.362;7.370;2023-04-25T10:33:36;10.50;99.90
12885;DHT22;6510;51.362;7.370;2023-04-25T10:38:36;10.20;99.90
12885;DHT22;6510;51.362;7.370;2023-04-25T10:41:07;11.30;99.90
12885;DHT22;6510;51.362;7.370;2023-04-25T10:46:16;10.70;99.90
12885;DHT22;6510;51.362;7.370;2023-04-25T10:48:55;12.10;99.90
12885;DHT22;6510;51.362;7.370;2023-04-25T10:51:29;13.80;99.90
12885;DHT22;6510;51.362;7.370;2023-04-25T10:54:05;12.40;99.90
12885;DHT22;6510;51.362;7.370;2023-04-25T10:56:39;11.50;99.90
12885;DHT22;6510;51.362;7.370;2023-04-25T10:59:14;10.50;99.90
12885;DHT22;6510;51.362;7.370;2023-04-25T11:01:45;10.20;99.90
12885;DHT22;6510;51.362;7.370;2023-04-25T11:04:21;10.00;99.90
12885;DHT22;6510;51.362;7.370;2023-04-25T11:10:05;9.70;99.90
12885;DHT22;6510;51.362;7.370;2023-04-25T11:12:31;9.30;99.90
12885;DHT22;6510;51.362;7.370;2023-04-25T11:15:05;9.70;99.90
12885;DHT22;6510;51.362;7.370;2023-04-25T11:17:31;9.60;99.90
12885;DHT22;6510;51.362;7.370;2023-04-25T11:19:57;9.80;99.90
12885;DHT22;6510;51.362;7.370;2023-04-25T11:22:31;10.70;99.90
12885;DHT22;6510;51.362;7.370;2023-04-25T11:25:09;10.80;99.90
12885;DHT22;6510;51.362;7.370;2023-04-25T11:27:52;11.10;99.90
12885;DHT22;6510;51.362;7.370;2023-04-25T11:30:21;10.30;99.90
12885;DHT22;6510;51.362;7.370;2023-04-25T11:32:47;9.70;99.90
12885;DHT22;6510;51.362;7.370;2023-04-25T11:35:13;9.60;99.90
12885;DHT22;6510;51.362;7.370;2023-04-25T11:37:39;9.30;99.90
12885;DHT22;6510;51.362;7.370;2023-04-25T11:40:06;8.40;99.90
12885;DHT22;6510;51.362;7.370;2023-04-25T11:42:34;8.40;99.90
12885;DHT22;6510;51.362;7.370;2023-04-25T11:45:00;8.40;99.90
12885;DHT22;6510;51.362;7.370;2023-04-25T11:47:33;8.40;99.90
12885;DHT22;6510;51.362;7.370;2023-04-25T11:49:59;8.60;99.90
12885;DHT22;6510;51.362;7.370;2023-04-25T11:52:45;8.60;99.90
12885;DHT22;6510;51.362;7.370;2023-04-25T11:55:16;8.50;99.90
12885;DHT22;6510;51.362;7.370;2023-04-25T11:57:47;8.50;99.90
12885;DHT22;6510;51.362;7.370;2023-04-25T12:00:18;8.60;99.90
12885;DHT22;6510;51.362;7.370;2023-04-25T12:02:47;8.70;99.90
12885;DHT22;6510;51.362;7.370;2023-04-25T12:05:14;8.50;99.90
12885;DHT22;6510;51.362;7.370;2023-04-25T12:07:41;9.40;99.90
12885;DHT22;6510;51.362;7.370;2023-04-25T12:10:10;10.10;99.90
12885;DHT22;6510;51.362;7.370;2023-04-25T12:12:36;11.30;99.90
12885;DHT22;6510;51.362;7.370;2023-04-25T12:15:15;12.00;99.90
12885;DHT22;6510;51.362;7.370;2023-04-25T12:17:48;12.00;99.90
12885;DHT22;6510;51.362;7.370;2023-04-25T12:20:15;12.80;99.90
12885;DHT22;6510;51.362;7.370;2023-04-25T12:22:44;12.80;99.90
12885;DHT22;6510;51.362;7.370;2023-04-25T12:25:11;13.50;99.90
12885;DHT22;6510;51.362;7.370;2023-04-25T12:27:37;13.60;99.90
12885;DHT22;6510;51.362;7.370;2023-04-25T12:30:03;12.70;99.90
12885;DHT22;6510;51.362;7.370;2023-04-25T12:32:29;11.90;99.90
12885;DHT22;6510;51.362;7.370;2023-04-25T12:34:55;12.40;99.90
12885;DHT22;6510;51.362;7.370;2023-04-25T12:37:21;14.10;99.90
12885;DHT22;6510;51.362;7.370;2023-04-25T12:39:46;15.00;99.90
12885;DHT22;6510;51.362;7.370;2023-04-25T12:42:12;15.40;99.90
12885;DHT22;6510;51.362;7.370;2023-04-25T12:44:38;13.60;99.90
12885;DHT22;6510;51.362;7.370;2023-04-25T12:47:04;12.70;99.90
12885;DHT22;6510;51.362;7.370;2023-04-25T12:49:30;11.70;99.90
12885;DHT22;6510;51.362;7.370;2023-04-25T12:51:57;11.10;99.90
12885;DHT22;6510;51.362;7.370;2023-04-25T12:54:22;11.00;99.90
12885;DHT22;6510;51.362;7.370;2023-04-25T12:56:48;10.70;99.90
12885;DHT22;6510;51.362;7.370;2023-04-25T12:59:15;10.20;99.90
12885;DHT22;6510;51.362;7.370;2023-04-25T13:01:41;10.20;99.90
12885;DHT22;6510;51.362;7.370;2023-04-25T13:04:10;10.50;99.90
12885;DHT22;6510;51.362;7.370;2023-04-25T13:06:36;10.30;99.90
12885;DHT22;6510;51.362;7.370;2023-04-25T13:09:02;10.40;99.90
12885;DHT22;6510;51.362;7.370;2023-04-25T13:11:28;10.80;99.90
12885;DHT22;6510;51.362;7.370;2023-04-25T13:13:55;10.90;99.90
12885;DHT22;6510;51.362;7.370;2023-04-25T13:16:20;10.20;99.90
12885;DHT22;6510;51.362;7.370;2023-04-25T13:18:46;10.30;99.90
12885;DHT22;6510;51.362;7.370;2023-04-25T13:21:12;10.40;99.90
12885;DHT22;6510;51.362;7.370;2023-04-25T13:23:37;11.60;99.90
12885;DHT22;6510;51.362;7.370;2023-04-25T13:26:03;13.00;99.90
12885;DHT22;6510;51.362;7.370;2023-04-25T13:28:29;12.80;99.90
12885;DHT22;6510;51.362;7.370;2023-04-25T13:30:54;12.90;99.90
12885;DHT22;6510;51.362;7.370;2023-04-25T13:33:20;12.20;99.90
12885;DHT22;6510;51.362;7.370;2023-04-25T13:35:48;11.50;99.90
12885;DHT22;6510;51.362;7.370;2023-04-25T13:38:22;10.30;99.90
12885;DHT22;6510;51.362;7.370;2023-04-25T13:40:48;10.20;99.90
12885;DHT22;6510;51.362;7.370;2023-04-25T13:43:14;10.00;99.90
12885;DHT22;6510;51.362;7.370;2023-04-25T13:45:40;9.40;99.90
12885;DHT22;6510;51.362;7.370;2023-04-25T13:48:06;9.00;99.90
12885;DHT22;6510;51.362;7.370;2023-04-25T13:50:32;8.80;99.90
12885;DHT22;6510;51.362;7.370;2023-04-25T13:52:57;8.60;99.90
12885;DHT22;6510;51.362;7.370;2023-04-25T13:55:23;8.30;99.90
12885;DHT22;6510;51.362;7.370;2023-04-25T13:57:49;8.30;99.90
12885;DHT22;6510;51.362;7.370;2023-04-25T14:00:15;8.10;99.90
12885;DHT22;6510;51.362;7.370;2023-04-25T14:02:40;8.50;99.90
12885;DHT22;6510;51.362;7.370;2023-04-25T14:05:07;8.20;99.90
12885;DHT22;6510;51.362;7.370;2023-04-25T14:07:36;8.30;99.90
12885;DHT22;6510;51.362;7.370;2023-04-25T14:10:03;8.00;99.90
12885;DHT22;6510;51.362;7.370;2023-04-25T14:12:30;8.40;99.90
12885;DHT22;6510;51.362;7.370;2023-04-25T14:14:55;8.00;99.90
12885;DHT22;6510;51.362;7.370;2023-04-25T14:17:21;8.10;99.90
12885;DHT22;6510;51.362;7.370;2023-04-25T14:19:47;8.60;99.90
12885;DHT22;6510;51.362;7.370;2023-04-25T14:22:14;8.60;99.90
12885;DHT22;6510;51.362;7.370;2023-04-25T14:24:40;8.50;99.90
12885;DHT22;6510;51.362;7.370;2023-04-25T14:27:06;9.20;99.90
12885;DHT22;6510;51.362;7.370;2023-04-25T14:29:32;10.00;99.90
12885;DHT22;6510;51.362;7.370;2023-04-25T14:31:57;10.10;99.90
12885;DHT22;6510;51.362;7.370;2023-04-25T14:34:24;10.60;99.90
12885;DHT22;6510;51.362;7.370;2023-04-25T14:36:51;10.50;99.90
12885;DHT22;6510;51.362;7.370;2023-04-25T14:39:17;10.40;99.90
12885;DHT22;6510;51.362;7.370;2023-04-25T14:41:42;10.10;99.90
12885;DHT22;6510;51.362;7.370;2023-04-25T14:44:08;10.80;99.90
12885;DHT22;6510;51.362;7.370;2023-04-25T14:46:34;10.50;99.90
12885;DHT22;6510;51.362;7.370;2023-04-25T14:48:59;10.10;99.90
12885;DHT22;6510;51.362;7.370;2023-04-25T14:51:25;10.20;99.90
12885;DHT22;6510;51.362;7.370;2023-04-25T14:53:52;10.50;99.90
12885;DHT22;6510;51.362;7.370;2023-04-25T14:56:18;10.80;99.90
12885;DHT22;6510;51.362;7.370;2023-04-25T14:58:44;10.90;99.90
12885;DHT22;6510;51.362;7.370;2023-04-25T15:01:11;10.40;99.90
12885;DHT22;6510;51.362;7.370;2023-04-25T15:03:38;10.70;99.90
12885;DHT22;6510;51.362;7.370;2023-04-25T15:06:05;11.10;99.90
12885;DHT22;6510;51.362;7.370;2023-04-25T15:08:31;11.60;99.90
12885;DHT22;6510;51.362;7.370;2023-04-25T15:10:57;11.50;99.90
12885;DHT22;6510;51.362;7.370;2023-04-25T15:13:25;11.00;99.90
12885;DHT22;6510;51.362;7.370;2023-04-25T15:15:51;11.00;99.90
12885;DHT22;6510;51.362;7.370;2023-04-25T15:18:20;10.90;99.90
12885;DHT22;6510;51.362;7.370;2023-04-25T15:20:48;10.90;99.90
12885;DHT22;6510;51.362;7.370;2023-04-25T15:23:13;10.90;99.90
12885;DHT22;6510;51.362;7.370;2023-04-25T15:25:39;10.80;99.90
12885;DHT22;6510;51.362;7.370;2023-04-25T15:28:05;10.30;99.90
12885;DHT22;6510;51.362;7.370;2023-04-25T15:30:30;9.90;99.90
12885;DHT22;6510;51.362;7.370;2023-04-25T15:32:56;9.70;99.90
12885;DHT22;6510;51.362;7.370;2023-04-25T15:35:21;9.60;99.90
12885;DHT22;6510;51.362;7.370;2023-04-25T15:37:47;9.80;99.90
12885;DHT22;6510;51.362;7.370;2023-04-25T15:40:16;9.70;99.90
12885;DHT22;6510;51.362;7.370;2023-04-25T15:42:44;9.90;99.90
12885;DHT22;6510;51.362;7.370;2023-04-25T15:45:16;10.00;99.90
12885;DHT22;6510;51.362;7.370;2023-04-25T15:47:42;10.00;99.90
12885;DHT22;6510;51.362;7.370;2023-04-25T15:50:09;9.80;99.90
12885;DHT22;6510;51.362;7.370;2023-04-25T15:52:36;10.00;99.90
12885;DHT22;6510;51.362;7.370;2023-04-25T15:55:03;10.20;99.90
12885;DHT22;6510;51.362;7.370;2023-04-25T15:57:35;10.60;99.90
12885;DHT22;6510;51.362;7.370;2023-04-25T16:00:05;10.60;99.90
12885;DHT22;6510;51.362;7.370;2023-04-25T16:02:42;10.60;99.90
12885;DHT22;6510;51.362;7.370;2023-04-25T16:05:09;10.90;99.90
12885;DHT22;6510;51.362;7.370;2023-04-25T16:07:36;10.80;99.90